createdAt,value
2018-06-29T00:00:31.420Z,78.70
2018-06-29T00:03:01.237Z,79.14
2018-06-29T00:05:31.088Z,78.68
2018-06-29T00:08:00.865Z,78.86
2018-06-29T00:10:30.708Z,79.40
2018-06-29T00:13:00.523Z,78.71
2018-06-29T00:15:30.340Z,79.20
2018-06-29T00:18:00.169Z,78.83
2018-06-29T00:20:29.940Z,79.35
2018-06-29T00:22:59.812Z,78.99
2018-06-29T00:25:29.616Z,79.25
2018-06-29T00:27:59.416Z,79.22
2018-06-29T00:30:29.268Z,78.70
2018-06-29T00:32:59.092Z,79.37
2018-06-29T00:35:28.855Z,78.88
2018-06-29T00:37:58.734Z,79.30
2018-06-29T00:40:28.551Z,80.28
2018-06-29T00:42:58.363Z,79.90
2018-06-29T00:45:28.245Z,79.78
2018-06-29T00:47:58.014Z,80.19
2018-06-29T00:50:27.851Z,79.99
2018-06-29T00:52:57.675Z,80.74
2018-06-29T00:55:28.518Z,80.63
2018-06-29T00:57:58.311Z,80.13
2018-06-29T01:00:28.128Z,80.64
2018-06-29T01:02:57.908Z,80.20
2018-06-29T01:05:27.728Z,80.12
2018-06-29T01:07:57.581Z,79.73
2018-06-29T01:10:27.400Z,80.06
2018-06-29T01:12:57.187Z,80.33
2018-06-29T01:15:27.030Z,80.60
2018-06-29T01:17:56.836Z,81.34
2018-06-29T01:20:26.615Z,80.69
2018-06-29T01:22:56.558Z,81.17
2018-06-29T01:25:26.370Z,81.20
2018-06-29T01:27:56.184Z,81.17
2018-06-29T01:30:26.000Z,82.09
2018-06-29T01:32:55.804Z,81.86
2018-06-29T01:35:25.553Z,82.10
2018-06-29T01:37:55.309Z,81.35
2018-06-29T01:40:25.148Z,82.07
2018-06-29T01:42:54.980Z,81.98
2018-06-29T01:45:24.804Z,81.81
2018-06-29T01:47:54.668Z,81.52
2018-06-29T01:50:24.453Z,81.98
2018-06-29T01:52:54.224Z,81.68
2018-06-29T01:55:24.029Z,81.71
2018-06-29T01:57:53.832Z,82.00
2018-06-29T02:00:23.649Z,82.29
2018-06-29T02:02:53.447Z,82.33
2018-06-29T02:05:23.265Z,81.62
2018-06-29T02:07:53.084Z,81.97
2018-06-29T02:10:22.953Z,81.70
2018-06-29T02:12:52.731Z,81.99
2018-06-29T02:15:22.588Z,81.59
2018-06-29T02:17:52.396Z,82.27
2018-06-29T02:20:22.204Z,82.04
2018-06-29T02:22:52.025Z,82.02
2018-06-29T02:25:21.893Z,82.27
2018-06-29T02:27:51.732Z,81.77
2018-06-29T02:30:21.604Z,81.75
2018-06-29T02:32:51.384Z,82.35
2018-06-29T02:35:21.203Z,81.79
2018-06-29T02:37:51.024Z,82.17
2018-06-29T02:40:20.856Z,82.17
2018-06-29T02:42:50.713Z,82.16
2018-06-29T02:45:20.584Z,82.22
2018-06-29T02:47:50.397Z,81.99
2018-06-29T02:50:20.224Z,82.04
2018-06-29T02:52:50.000Z,82.20
2018-06-29T02:55:19.909Z,82.41
2018-06-29T02:57:49.736Z,81.77
2018-06-29T03:00:19.523Z,82.07
2018-06-29T03:02:49.333Z,82.52
2018-06-29T03:05:19.188Z,82.29
2018-06-29T03:07:49.010Z,82.61
2018-06-29T03:10:18.797Z,81.94
2018-06-29T03:12:48.604Z,81.09
2018-06-29T03:15:18.436Z,81.00
2018-06-29T03:17:48.199Z,80.54
2018-06-29T03:20:18.008Z,80.96
2018-06-29T03:22:47.816Z,80.80
2018-06-29T03:25:17.671Z,79.86
2018-06-29T03:27:47.428Z,80.45
2018-06-29T03:30:17.268Z,80.09
2018-06-29T03:32:47.140Z,79.44
2018-06-29T03:35:16.935Z,79.64
2018-06-29T03:37:46.764Z,80.03
2018-06-29T03:40:16.653Z,79.84
2018-06-29T03:42:46.399Z,79.35
2018-06-29T03:45:16.219Z,79.58
2018-06-29T03:47:46.053Z,79.82
2018-06-29T03:50:15.880Z,80.28
2018-06-29T03:52:45.660Z,79.66
2018-06-29T03:55:15.468Z,79.71
2018-06-29T03:57:45.227Z,80.18
2018-06-29T04:00:15.053Z,80.20
2018-06-29T04:02:44.846Z,80.68
2018-06-29T04:05:14.628Z,80.74
2018-06-29T04:07:44.436Z,80.58
2018-06-29T04:10:14.238Z,80.41
2018-06-29T04:12:44.020Z,79.82
2018-06-29T04:15:13.908Z,79.52
2018-06-29T04:17:43.688Z,79.79
2018-06-29T04:20:13.507Z,80.00
2018-06-29T04:22:43.352Z,79.62
2018-06-29T04:25:13.280Z,79.71
2018-06-29T04:27:43.085Z,79.57
2018-06-29T04:30:12.984Z,79.91
2018-06-29T04:32:42.832Z,80.25
2018-06-29T04:35:12.640Z,79.75
2018-06-29T04:37:42.464Z,79.90
2018-06-29T04:40:12.288Z,80.48
2018-06-29T04:42:42.045Z,80.46
2018-06-29T04:45:11.940Z,80.32
2018-06-29T04:47:41.720Z,80.43
2018-06-29T04:50:11.593Z,80.11
2018-06-29T04:52:41.399Z,79.81
2018-06-29T04:55:11.206Z,80.21
2018-06-29T04:57:41.328Z,79.42
2018-06-29T05:00:11.180Z,79.69
2018-06-29T05:02:41.056Z,80.34
2018-06-29T05:05:10.853Z,79.85
2018-06-29T05:07:40.700Z,79.61
2018-06-29T05:10:10.552Z,78.91
2018-06-29T05:12:40.382Z,78.23
2018-06-29T05:15:10.215Z,78.56
2018-06-29T05:17:40.048Z,77.66
2018-06-29T05:20:09.902Z,77.41
2018-06-29T05:22:39.725Z,78.03
2018-06-29T05:25:09.688Z,76.74
2018-06-29T05:27:39.516Z,77.15
2018-06-29T05:30:10.027Z,77.06
2018-06-29T05:32:39.867Z,75.71
2018-06-29T05:35:09.817Z,75.52
2018-06-29T05:37:39.640Z,75.33
2018-06-29T05:40:09.504Z,74.71
2018-06-29T05:42:39.389Z,74.13
2018-06-29T05:45:09.521Z,73.45
2018-06-29T05:47:39.377Z,72.69
2018-06-29T05:50:09.352Z,72.32
2018-06-29T05:52:39.357Z,72.83
2018-06-29T05:55:09.232Z,72.66
2018-06-29T05:57:39.169Z,72.30
2018-06-29T06:00:09.131Z,71.91
2018-06-29T06:02:39.028Z,71.40
2018-06-29T06:05:08.900Z,70.60
2018-06-29T06:07:38.834Z,69.71
2018-06-29T06:10:08.815Z,69.79
2018-06-29T06:12:38.621Z,69.37
2018-06-29T06:15:08.508Z,70.45
2018-06-29T06:17:38.387Z,69.86
2018-06-29T06:20:14.053Z,69.91
2018-06-29T06:22:43.932Z,70.30
2018-06-29T06:25:13.908Z,69.97
2018-06-29T06:27:43.784Z,69.62
2018-06-29T06:30:13.640Z,69.48
2018-06-29T06:32:43.587Z,68.49
2018-06-29T06:35:13.536Z,68.95
2018-06-29T06:37:43.460Z,70.02
2018-06-29T06:40:13.337Z,70.15
2018-06-29T06:42:43.172Z,70.61
2018-06-29T06:45:13.066Z,70.92
2018-06-29T06:47:43.015Z,70.09
2018-06-29T06:50:12.919Z,69.54
2018-06-29T06:52:42.861Z,70.45
2018-06-29T06:55:12.720Z,70.09
2018-06-29T06:57:42.596Z,70.50
2018-06-29T07:00:12.512Z,68.80
2018-06-29T07:02:42.349Z,69.42
2018-06-29T07:05:12.284Z,68.94
2018-06-29T07:07:42.180Z,68.07
2018-06-29T07:10:12.169Z,68.14
2018-06-29T07:12:42.063Z,68.38
2018-06-29T07:15:11.924Z,68.69
2018-06-29T07:17:41.764Z,67.76
2018-06-29T07:20:11.561Z,68.36
2018-06-29T07:22:41.384Z,67.46
2018-06-29T07:25:11.243Z,67.44
2018-06-29T07:27:41.097Z,66.53
2018-06-29T07:30:11.008Z,66.33
2018-06-29T07:32:40.963Z,65.01
2018-06-29T07:35:10.828Z,65.57
2018-06-29T07:37:40.770Z,64.71
2018-06-29T07:40:10.642Z,63.33
2018-06-29T07:42:40.586Z,62.61
2018-06-29T07:45:10.529Z,63.58
2018-06-29T07:47:40.471Z,63.98
2018-06-29T07:50:10.303Z,63.24
2018-06-29T07:52:40.141Z,62.87
2018-06-29T07:55:10.209Z,64.45
2018-06-29T07:57:40.052Z,64.20
2018-06-29T08:00:10.056Z,64.42
2018-06-29T08:02:39.961Z,63.45
2018-06-29T08:05:09.873Z,61.91
2018-06-29T08:07:39.701Z,60.95
2018-06-29T08:10:09.586Z,61.28
2018-06-29T08:12:39.476Z,60.29
2018-06-29T08:15:09.368Z,60.26
2018-06-29T08:17:39.312Z,60.36
2018-06-29T08:20:09.209Z,61.34
2018-06-29T08:22:39.129Z,59.72
2018-06-29T08:25:11.628Z,60.38
2018-06-29T08:27:41.623Z,58.72
2018-06-29T08:30:12.444Z,59.58
2018-06-29T08:32:42.443Z,58.22
2018-06-29T08:35:12.436Z,58.15
2018-06-29T08:37:42.446Z,59.30
2018-06-29T08:40:12.272Z,58.79
2018-06-29T08:42:42.139Z,56.53
2018-06-29T08:45:12.017Z,57.45
2018-06-29T08:47:41.979Z,56.42
2018-06-29T08:50:12.072Z,54.58
2018-06-29T08:52:42.104Z,53.11
2018-06-29T08:55:12.112Z,53.89
2018-06-29T08:57:42.033Z,54.12
2018-06-29T09:00:12.063Z,53.41
2018-06-29T09:02:41.941Z,52.77
2018-06-29T09:05:11.787Z,54.02
2018-06-29T09:07:41.665Z,53.60
2018-06-29T09:10:11.602Z,52.03
2018-06-29T09:12:41.433Z,53.78
2018-06-29T09:15:11.248Z,53.93
2018-06-29T09:17:41.095Z,53.50
2018-06-29T09:20:10.951Z,54.22
2018-06-29T09:22:40.737Z,53.91
2018-06-29T09:25:10.629Z,54.74
2018-06-29T09:27:40.519Z,54.80
2018-06-29T09:30:10.357Z,54.24
2018-06-29T09:32:40.284Z,54.56
2018-06-29T09:35:10.136Z,54.52
2018-06-29T09:37:40.006Z,55.97
2018-06-29T09:40:09.940Z,55.51
2018-06-29T09:42:39.940Z,55.41
2018-06-29T09:45:09.793Z,56.52
2018-06-29T09:47:39.630Z,56.26
2018-06-29T09:50:09.460Z,54.51
2018-06-29T09:52:39.304Z,56.05
2018-06-29T09:55:09.102Z,54.10
2018-06-29T09:57:38.936Z,55.05
2018-06-29T10:00:10.044Z,54.92
2018-06-29T10:02:39.911Z,54.45
2018-06-29T10:05:09.712Z,54.61
2018-06-29T10:07:39.532Z,55.60
2018-06-29T10:10:09.483Z,55.19
2018-06-29T10:12:39.341Z,55.17
2018-06-29T10:15:09.154Z,56.87
2018-06-29T10:17:38.977Z,54.57
2018-06-29T10:20:08.900Z,56.55
2018-06-29T10:22:38.679Z,55.22
2018-06-29T10:25:08.544Z,54.34
2018-06-29T10:27:38.349Z,54.28
2018-06-29T10:30:08.903Z,53.99
2018-06-29T10:32:39.251Z,53.35
2018-06-29T10:35:09.292Z,54.14
2018-06-29T10:37:39.221Z,54.14
2018-06-29T10:40:09.078Z,53.18
2018-06-29T10:42:38.888Z,52.53
2018-06-29T10:45:08.807Z,51.94
2018-06-29T10:47:38.684Z,51.76
2018-06-29T10:50:08.452Z,53.09
2018-06-29T10:52:38.309Z,51.07
2018-06-29T10:55:08.156Z,51.85
2018-06-29T10:57:38.095Z,52.91
2018-06-29T11:00:08.254Z,50.88
2018-06-29T11:02:38.107Z,50.83
2018-06-29T11:05:07.888Z,49.82
2018-06-29T11:07:37.734Z,49.40
2018-06-29T11:10:08.403Z,48.79
2018-06-29T11:12:38.355Z,49.03
2018-06-29T11:15:08.249Z,48.89
2018-06-29T11:17:38.076Z,48.99
2018-06-29T11:20:07.904Z,48.64
2018-06-29T11:22:37.833Z,47.41
2018-06-29T11:25:07.665Z,48.28
2018-06-29T11:27:37.662Z,48.89
2018-06-29T11:30:07.676Z,47.16
2018-06-29T11:32:37.526Z,47.16
2018-06-29T11:35:07.507Z,46.39
2018-06-29T11:37:37.348Z,45.96
2018-06-29T11:40:07.458Z,46.93
2018-06-29T11:42:37.407Z,46.86
2018-06-29T11:45:07.391Z,47.11
2018-06-29T11:47:37.366Z,47.86
2018-06-29T11:50:07.253Z,48.67
2018-06-29T11:52:37.188Z,47.02
2018-06-29T11:55:07.029Z,46.71
2018-06-29T11:57:36.887Z,48.75
2018-06-29T12:00:07.040Z,47.57
2018-06-29T12:02:37.097Z,45.59
2018-06-29T12:05:07.131Z,46.83
2018-06-29T12:07:36.983Z,45.77
2018-06-29T12:10:06.858Z,46.10
2018-06-29T12:12:36.720Z,46.70
2018-06-29T12:15:07.560Z,47.59
2018-06-29T12:17:37.515Z,45.99
2018-06-29T12:20:07.486Z,45.51
2018-06-29T12:22:37.374Z,45.78
2018-06-29T12:25:07.284Z,45.83
2018-06-29T12:27:37.217Z,46.12
2018-06-29T12:30:07.192Z,46.16
2018-06-29T12:32:37.107Z,46.48
2018-06-29T12:35:07.071Z,47.00
2018-06-29T12:37:37.036Z,47.04
2018-06-29T12:40:06.972Z,46.64
2018-06-29T12:42:37.128Z,45.74
2018-06-29T12:45:07.004Z,44.69
2018-06-29T12:47:36.904Z,44.74
2018-06-29T12:50:06.978Z,45.09
2018-06-29T12:52:36.843Z,45.01
2018-06-29T12:55:06.783Z,46.21
2018-06-29T12:57:36.696Z,45.32
2018-06-29T13:00:07.024Z,46.08
2018-06-29T13:02:36.860Z,45.61
2018-06-29T13:05:06.840Z,46.11
2018-06-29T13:07:36.723Z,45.36
2018-06-29T13:10:06.672Z,45.39
2018-06-29T13:12:36.653Z,45.15
2018-06-29T13:15:07.097Z,44.39
2018-06-29T13:17:36.979Z,44.24
2018-06-29T13:20:07.421Z,45.37
2018-06-29T13:22:37.271Z,45.59
2018-06-29T13:25:07.220Z,45.15
2018-06-29T13:27:37.014Z,45.59
2018-06-29T13:30:07.080Z,46.56
2018-06-29T13:32:36.960Z,46.18
2018-06-29T13:35:06.909Z,46.02
2018-06-29T13:37:36.778Z,47.26
2018-06-29T13:40:06.885Z,46.51
2018-06-29T13:42:36.721Z,46.93
2018-06-29T13:45:06.669Z,47.45
2018-06-29T13:47:36.609Z,47.02
2018-06-29T13:50:06.625Z,47.28
2018-06-29T13:52:36.483Z,46.58
2018-06-29T13:55:06.404Z,48.05
2018-06-29T13:57:36.184Z,47.83
2018-06-29T14:00:06.692Z,47.99
2018-06-29T14:02:36.685Z,48.82
2018-06-29T14:05:06.549Z,48.08
2018-06-29T14:07:36.372Z,49.14
2018-06-29T14:10:06.236Z,49.82
2018-06-29T14:12:37.076Z,50.23
2018-06-29T14:15:07.005Z,50.81
2018-06-29T14:17:36.913Z,50.54
2018-06-29T14:20:06.961Z,51.31
2018-06-29T14:22:36.790Z,51.63
2018-06-29T14:25:06.756Z,50.90
2018-06-29T14:27:36.665Z,50.95
2018-06-29T14:30:06.808Z,51.57
2018-06-29T14:32:36.848Z,52.10
2018-06-29T14:35:06.901Z,52.40
2018-06-29T14:37:36.788Z,52.00
2018-06-29T14:40:06.710Z,51.78
2018-06-29T14:42:36.540Z,52.17
2018-06-29T14:45:06.516Z,53.14
2018-06-29T14:47:36.386Z,52.91
2018-06-29T14:50:06.185Z,51.73
2018-06-29T14:52:36.121Z,53.14
2018-06-29T14:55:06.209Z,52.07
2018-06-29T14:57:36.028Z,52.34
2018-06-29T15:00:08.112Z,52.44
2018-06-29T15:02:38.100Z,51.61
2018-06-29T15:05:07.920Z,52.51
2018-06-29T15:07:37.732Z,51.71
2018-06-29T15:10:07.708Z,52.66
2018-06-29T15:12:37.508Z,52.46
2018-06-29T15:15:07.332Z,51.31
2018-06-29T15:17:37.229Z,52.79
2018-06-29T15:20:08.020Z,50.80
2018-06-29T15:22:38.373Z,51.88
2018-06-29T15:25:08.300Z,51.62
2018-06-29T15:27:38.141Z,53.10
2018-06-29T15:30:08.148Z,54.03
2018-06-29T15:32:37.992Z,53.41
2018-06-29T15:35:07.800Z,55.83
2018-06-29T15:37:37.658Z,56.83
2018-06-29T15:40:07.480Z,58.62
2018-06-29T15:42:37.296Z,59.65
2018-06-29T15:45:07.508Z,61.08
2018-06-29T15:47:37.313Z,61.28
2018-06-29T15:50:07.280Z,61.31
2018-06-29T15:52:37.083Z,62.02
2018-06-29T15:55:06.991Z,63.10
2018-06-29T15:57:36.757Z,64.03
2018-06-29T16:00:08.722Z,63.92
2018-06-29T16:02:38.543Z,64.08
2018-06-29T16:05:08.436Z,64.41
2018-06-29T16:07:38.265Z,64.69
2018-06-29T16:10:08.141Z,64.63
2018-06-29T16:12:37.957Z,64.82
2018-06-29T16:15:07.812Z,64.11
2018-06-29T16:17:37.680Z,64.41
2018-06-29T16:20:07.500Z,64.35
2018-06-29T16:22:37.348Z,64.66
2018-06-29T16:25:07.150Z,64.75
2018-06-29T16:27:36.967Z,65.40
2018-06-29T16:30:07.331Z,65.91
2018-06-29T16:32:37.208Z,65.35
2018-06-29T16:35:07.132Z,65.67
2018-06-29T16:37:37.095Z,65.11
2018-06-29T16:40:06.864Z,66.37
2018-06-29T16:42:36.724Z,65.76
2018-06-29T16:45:06.753Z,65.42
2018-06-29T16:47:36.632Z,65.45
2018-06-29T16:50:06.680Z,65.43
2018-06-29T16:52:36.481Z,65.19
2018-06-29T16:55:06.744Z,65.78
2018-06-29T16:57:36.554Z,65.36
2018-06-29T17:00:07.214Z,65.56
2018-06-29T17:02:37.059Z,65.82
2018-06-29T17:05:07.005Z,65.09
2018-06-29T17:07:36.777Z,64.91
2018-06-29T17:10:06.890Z,64.22
2018-06-29T17:12:36.684Z,63.69
2018-06-29T17:15:06.920Z,63.36
2018-06-29T17:17:36.710Z,63.83
2018-06-29T17:20:06.606Z,63.16
2018-06-29T17:22:36.439Z,63.41
2018-06-29T17:25:06.517Z,62.90
2018-06-29T17:27:36.344Z,62.81
2018-06-29T17:30:06.640Z,62.81
2018-06-29T17:32:36.869Z,63.73
2018-06-29T17:35:06.832Z,63.37
2018-06-29T17:37:36.764Z,63.77
2018-06-29T17:40:06.656Z,63.84
2018-06-29T17:42:36.491Z,64.04
2018-06-29T17:45:06.365Z,63.94
2018-06-29T17:47:36.260Z,63.78
2018-06-29T17:50:06.118Z,64.40
2018-06-29T17:52:35.965Z,64.23
2018-06-29T17:55:05.973Z,65.61
2018-06-29T17:57:35.801Z,66.35
2018-06-29T18:00:06.200Z,67.06
2018-06-29T18:02:36.093Z,66.98
2018-06-29T18:05:06.159Z,68.40
2018-06-29T18:07:35.963Z,68.00
2018-06-29T18:10:05.910Z,68.80
2018-06-29T18:12:35.765Z,68.67
2018-06-29T18:15:05.644Z,68.54
2018-06-29T18:17:35.492Z,68.59
2018-06-29T18:20:05.444Z,68.26
2018-06-29T18:22:35.278Z,69.17
2018-06-29T18:25:05.277Z,69.14
2018-06-29T18:27:35.100Z,68.54
2018-06-29T18:30:05.432Z,68.40
2018-06-29T18:32:35.302Z,67.90
2018-06-29T18:35:05.260Z,67.37
2018-06-29T18:37:35.064Z,67.72
2018-06-29T18:40:05.116Z,68.05
2018-06-29T18:42:34.901Z,67.91
2018-06-29T18:45:04.795Z,67.17
2018-06-29T18:47:34.640Z,67.13
2018-06-29T18:50:04.760Z,67.00
2018-06-29T18:52:34.596Z,66.51
2018-06-29T18:55:04.559Z,66.34
2018-06-29T18:57:34.472Z,66.62
2018-06-29T19:00:04.392Z,66.02
2018-06-29T19:02:34.244Z,65.79
2018-06-29T19:05:04.149Z,65.89
2018-06-29T19:07:33.951Z,66.03
2018-06-29T19:10:03.724Z,66.40
2018-06-29T19:12:33.524Z,66.08
2018-06-29T19:15:03.351Z,66.48
2018-06-29T19:17:33.253Z,67.65
2018-06-29T19:20:03.041Z,68.18
2018-06-29T19:22:32.868Z,68.18
2018-06-29T19:25:02.812Z,68.23
2018-06-29T19:27:32.620Z,68.99
2018-06-29T19:30:02.450Z,68.79
2018-06-29T19:32:32.323Z,69.12
2018-06-29T19:35:02.206Z,69.63
2018-06-29T19:37:32.011Z,69.42
2018-06-29T19:40:01.882Z,68.89
2018-06-29T19:42:31.679Z,69.58
2018-06-29T19:45:01.474Z,68.89
2018-06-29T19:47:31.300Z,69.26
2018-06-29T19:50:01.119Z,69.86
2018-06-29T19:52:30.929Z,69.72
2018-06-29T19:55:00.775Z,69.83
2018-06-29T19:57:30.570Z,69.93
2018-06-29T20:00:00.455Z,69.48
2018-06-29T20:02:30.224Z,69.75
2018-06-29T20:05:00.087Z,69.53
2018-06-29T20:07:29.924Z,68.90
2018-06-29T20:09:59.721Z,69.21
2018-06-29T20:12:29.574Z,69.31
2018-06-29T20:14:59.436Z,69.31
2018-06-29T20:17:29.213Z,68.68
2018-06-29T20:19:59.061Z,68.24
2018-06-29T20:22:29.000Z,68.50
2018-06-29T20:24:58.828Z,68.43
2018-06-29T20:27:28.680Z,67.87
2018-06-29T20:29:58.493Z,68.15
2018-06-29T20:32:28.316Z,67.49
2018-06-29T20:34:58.128Z,67.45
2018-06-29T20:37:27.976Z,68.25
2018-06-29T20:39:57.888Z,67.91
2018-06-29T20:42:27.719Z,68.08
2018-06-29T20:44:57.580Z,67.72
2018-06-29T20:47:27.441Z,67.90
2018-06-29T20:49:57.316Z,67.80
2018-06-29T20:52:27.128Z,67.74
2018-06-29T20:54:56.951Z,68.62
2018-06-29T20:57:26.775Z,68.84
2018-06-29T20:59:56.592Z,68.58
2018-06-29T21:02:26.408Z,68.52
2018-06-29T21:04:56.237Z,68.81
2018-06-29T21:07:26.059Z,68.41
2018-06-29T21:09:55.902Z,67.21
2018-06-29T21:12:25.780Z,66.39
2018-06-29T21:14:55.580Z,66.27
2018-06-29T21:17:25.448Z,66.35
2018-06-29T21:19:55.254Z,66.66
2018-06-29T21:22:25.086Z,66.01
2018-06-29T21:24:54.920Z,66.41
2018-06-29T21:27:24.744Z,65.74
2018-06-29T21:29:54.593Z,66.01
2018-06-29T21:32:24.384Z,65.85
2018-06-29T21:34:54.188Z,66.36
2018-06-29T21:37:23.992Z,65.94
2018-06-29T21:39:53.821Z,66.13
2018-06-29T21:42:23.651Z,66.82
2018-06-29T21:44:53.471Z,67.24
2018-06-29T21:47:23.273Z,66.67
2018-06-29T21:49:53.056Z,67.24
2018-06-29T21:52:22.873Z,67.73
2018-06-29T21:54:52.650Z,67.44
2018-06-29T21:57:22.476Z,68.44
2018-06-29T21:59:52.248Z,68.52
2018-06-29T22:02:22.064Z,69.21
2018-06-29T22:04:51.901Z,69.71
2018-06-29T22:07:21.748Z,70.83
2018-06-29T22:09:51.536Z,70.67
2018-06-29T22:12:21.392Z,70.58
2018-06-29T22:14:51.264Z,70.46
2018-06-29T22:17:21.058Z,71.16
2018-06-29T22:19:50.875Z,71.22
2018-06-29T22:22:20.662Z,70.64
2018-06-29T22:24:50.478Z,70.97
2018-06-29T22:27:20.314Z,71.78
2018-06-29T22:29:50.168Z,70.51
2018-06-29T22:32:19.984Z,70.58
2018-06-29T22:34:49.850Z,70.84
2018-06-29T22:37:19.657Z,70.40
2018-06-29T22:39:49.468Z,70.28
2018-06-29T22:42:19.300Z,70.37
2018-06-29T22:44:49.049Z,71.18
2018-06-29T22:47:18.910Z,71.12
2018-06-29T22:49:48.672Z,70.60
2018-06-29T22:52:18.475Z,70.38
2018-06-29T22:54:48.378Z,70.14
2018-06-29T22:57:18.226Z,70.64
2018-06-29T22:59:47.996Z,70.80
2018-06-29T23:02:17.832Z,70.86
2018-06-29T23:04:47.698Z,71.46
2018-06-29T23:07:17.619Z,71.36
2018-06-29T23:09:47.424Z,71.26
2018-06-29T23:12:17.285Z,71.18
2018-06-29T23:14:47.140Z,70.43
2018-06-29T23:17:17.001Z,71.08
2018-06-29T23:19:46.840Z,70.46
2018-06-29T23:22:16.772Z,70.87
2018-06-29T23:24:46.580Z,70.58
2018-06-29T23:27:16.415Z,71.21
2018-06-29T23:29:46.248Z,70.44
2018-06-29T23:32:16.064Z,70.01
2018-06-29T23:34:45.904Z,70.04
2018-06-29T23:37:15.744Z,69.27
2018-06-29T23:39:45.608Z,69.24
2018-06-29T23:42:15.503Z,69.01
2018-06-29T23:44:45.297Z,69.80
2018-06-29T23:47:15.144Z,68.65
2018-06-29T23:49:44.984Z,69.12
2018-06-29T23:52:14.853Z,68.61
2018-06-29T23:54:44.718Z,68.44
2018-06-29T23:57:14.529Z,68.11
2018-06-29T23:59:44.412Z,68.57
